sensor_id;sensor_type;location;lat;lon;timestamp;temperature;humidity
4556;DHT22;2290;48.674;9.018;2023-05-07T00:00:21;14.10;99.90
4556;DHT22;2290;48.674;9.018;2023-05-07T00:02:47;14.10;99.90
4556;DHT22;2290;48.674;9.018;2023-05-07T00:05:14;14.20;99.90
4556;DHT22;2290;48.674;9.018;2023-05-07T00:07:39;14.30;99.90
4556;DHT22;2290;48.674;9.018;2023-05-07T00:10:07;14.30;99.90
4556;DHT22;2290;48.674;9.018;2023-05-07T00:12:33;14.30;99.90
4556;DHT22;2290;48.674;9.018;2023-05-07T00:15:01;14.20;99.90
4556;DHT22;2290;48.674;9.018;2023-05-07T00:17:27;14.10;99.90
4556;DHT22;2290;48.674;9.018;2023-05-07T00:19:53;14.00;99.90
4556;DHT22;2290;48.674;9.018;2023-05-07T00:22:20;14.10;99.90
4556;DHT22;2290;48.674;9.018;2023-05-07T00:24:46;14.00;99.90
4556;DHT22;2290;48.674;9.018;2023-05-07T00:27:12;14.00;99.90
4556;DHT22;2290;48.674;9.018;2023-05-07T00:29:37;13.90;99.90
4556;DHT22;2290;48.674;9.018;2023-05-07T00:32:03;13.90;99.90
4556;DHT22;2290;48.674;9.018;2023-05-07T00:34:28;13.90;99.90
4556;DHT22;2290;48.674;9.018;2023-05-07T00:36:54;13.90;99.90
4556;DHT22;2290;48.674;9.018;2023-05-07T00:39:19;14.10;99.90
4556;DHT22;2290;48.674;9.018;2023-05-07T00:41:45;14.10;99.90
4556;DHT22;2290;48.674;9.018;2023-05-07T00:44:11;14.10;99.90
4556;DHT22;2290;48.674;9.018;2023-05-07T00:46:37;14.10;99.90
4556;DHT22;2290;48.674;9.018;2023-05-07T00:49:03;14.10;99.90
4556;DHT22;2290;48.674;9.018;2023-05-07T00:51:32;14.00;99.90
4556;DHT22;2290;48.674;9.018;2023-05-07T00:53:59;14.00;99.90
4556;DHT22;2290;48.674;9.018;2023-05-07T00:56:26;14.00;99.90
4556;DHT22;2290;48.674;9.018;2023-05-07T00:58:54;14.00;99.90
4556;DHT22;2290;48.674;9.018;2023-05-07T01:01:23;14.00;99.90
4556;DHT22;2290;48.674;9.018;2023-05-07T01:03:48;13.90;99.90
4556;DHT22;2290;48.674;9.018;2023-05-07T01:06:16;13.90;99.90
4556;DHT22;2290;48.674;9.018;2023-05-07T01:08:44;13.80;99.90
4556;DHT22;2290;48.674;9.018;2023-05-07T01:11:10;13.70;99.90
4556;DHT22;2290;48.674;9.018;2023-05-07T01:13:36;13.80;99.90
4556;DHT22;2290;48.674;9.018;2023-05-07T01:16:04;13.80;99.90
4556;DHT22;2290;48.674;9.018;2023-05-07T01:18:29;13.80;99.90
4556;DHT22;2290;48.674;9.018;2023-05-07T01:20:58;13.80;99.90
4556;DHT22;2290;48.674;9.018;2023-05-07T01:23:25;13.80;99.90
4556;DHT22;2290;48.674;9.018;2023-05-07T01:25:54;13.80;99.90
4556;DHT22;2290;48.674;9.018;2023-05-07T01:28:21;13.80;99.90
4556;DHT22;2290;48.674;9.018;2023-05-07T01:30:51;13.70;99.90
4556;DHT22;2290;48.674;9.018;2023-05-07T01:33:20;13.70;99.90
4556;DHT22;2290;48.674;9.018;2023-05-07T01:35:49;13.70;99.90
4556;DHT22;2290;48.674;9.018;2023-05-07T01:38:16;13.80;99.90
4556;DHT22;2290;48.674;9.018;2023-05-07T01:40:42;13.80;99.90
4556;DHT22;2290;48.674;9.018;2023-05-07T01:43:08;13.90;99.90
4556;DHT22;2290;48.674;9.018;2023-05-07T01:45:34;13.80;99.90
4556;DHT22;2290;48.674;9.018;2023-05-07T01:48:02;13.80;99.90
4556;DHT22;2290;48.674;9.018;2023-05-07T01:50:28;13.80;99.90
4556;DHT22;2290;48.674;9.018;2023-05-07T01:52:55;13.80;99.90
4556;DHT22;2290;48.674;9.018;2023-05-07T01:55:21;13.70;99.90
4556;DHT22;2290;48.674;9.018;2023-05-07T01:57:47;13.60;99.90
4556;DHT22;2290;48.674;9.018;2023-05-07T02:00:14;13.60;99.90
4556;DHT22;2290;48.674;9.018;2023-05-07T02:02:40;13.70;99.90
4556;DHT22;2290;48.674;9.018;2023-05-07T02:05:07;13.80;99.90
4556;DHT22;2290;48.674;9.018;2023-05-07T02:07:33;13.70;99.90
4556;DHT22;2290;48.674;9.018;2023-05-07T02:09:58;13.70;99.90
4556;DHT22;2290;48.674;9.018;2023-05-07T02:12:24;13.80;99.90
4556;DHT22;2290;48.674;9.018;2023-05-07T02:14:50;13.70;99.90
4556;DHT22;2290;48.674;9.018;2023-05-07T02:17:17;13.60;99.90
4556;DHT22;2290;48.674;9.018;2023-05-07T02:19:43;13.50;99.90
4556;DHT22;2290;48.674;9.018;2023-05-07T02:22:10;13.50;99.90
4556;DHT22;2290;48.674;9.018;2023-05-07T02:24:37;13.60;99.90
4556;DHT22;2290;48.674;9.018;2023-05-07T02:27:03;13.50;99.90
4556;DHT22;2290;48.674;9.018;2023-05-07T02:29:31;13.30;99.90
4556;DHT22;2290;48.674;9.018;2023-05-07T02:31:58;13.30;99.90
4556;DHT22;2290;48.674;9.018;2023-05-07T02:34:24;13.20;99.90
4556;DHT22;2290;48.674;9.018;2023-05-07T02:36:52;13.20;99.90
4556;DHT22;2290;48.674;9.018;2023-05-07T02:39:18;13.20;99.90
4556;DHT22;2290;48.674;9.018;2023-05-07T02:41:44;13.10;99.90
4556;DHT22;2290;48.674;9.018;2023-05-07T02:44:10;13.10;99.90
4556;DHT22;2290;48.674;9.018;2023-05-07T02:46:37;13.10;99.90
4556;DHT22;2290;48.674;9.018;2023-05-07T02:49:02;13.10;99.90
4556;DHT22;2290;48.674;9.018;2023-05-07T02:51:31;13.20;99.90
4556;DHT22;2290;48.674;9.018;2023-05-07T02:53:57;13.20;99.90
4556;DHT22;2290;48.674;9.018;2023-05-07T02:56:22;13.20;99.90
4556;DHT22;2290;48.674;9.018;2023-05-07T02:58:49;13.20;99.90
4556;DHT22;2290;48.674;9.018;2023-05-07T03:01:15;13.20;99.90
4556;DHT22;2290;48.674;9.018;2023-05-07T03:03:40;13.00;99.90
4556;DHT22;2290;48.674;9.018;2023-05-07T03:06:06;13.00;99.90
4556;DHT22;2290;48.674;9.018;2023-05-07T03:08:32;13.00;99.90
4556;DHT22;2290;48.674;9.018;2023-05-07T03:10:59;12.90;99.90
4556;DHT22;2290;48.674;9.018;2023-05-07T03:13:50;12.80;99.90
4556;DHT22;2290;48.674;9.018;2023-05-07T03:16:16;12.80;99.90
4556;DHT22;2290;48.674;9.018;2023-05-07T03:18:41;12.90;99.90
4556;DHT22;2290;48.674;9.018;2023-05-07T03:21:07;12.80;99.90
4556;DHT22;2290;48.674;9.018;2023-05-07T03:23:34;12.80;99.90
4556;DHT22;2290;48.674;9.018;2023-05-07T03:26:00;12.70;99.90
4556;DHT22;2290;48.674;9.018;2023-05-07T03:28:27;12.70;99.90
4556;DHT22;2290;48.674;9.018;2023-05-07T03:30:54;12.70;99.90
4556;DHT22;2290;48.674;9.018;2023-05-07T03:33:20;12.70;99.90
4556;DHT22;2290;48.674;9.018;2023-05-07T03:35:45;12.70;99.90
4556;DHT22;2290;48.674;9.018;2023-05-07T03:38:12;12.80;99.90
4556;DHT22;2290;48.674;9.018;2023-05-07T03:40:38;12.80;99.90
4556;DHT22;2290;48.674;9.018;2023-05-07T03:43:05;12.80;99.90
4556;DHT22;2290;48.674;9.018;2023-05-07T03:45:30;12.90;99.90
4556;DHT22;2290;48.674;9.018;2023-05-07T03:47:58;12.80;99.90
4556;DHT22;2290;48.674;9.018;2023-05-07T03:50:24;12.80;99.90
4556;DHT22;2290;48.674;9.018;2023-05-07T03:52:50;12.60;99.90
4556;DHT22;2290;48.674;9.018;2023-05-07T03:55:17;12.70;99.90
4556;DHT22;2290;48.674;9.018;2023-05-07T03:57:43;12.70;99.90
4556;DHT22;2290;48.674;9.018;2023-05-07T04:00:11;12.60;99.90
4556;DHT22;2290;48.674;9.018;2023-05-07T04:02:38;12.60;99.90
4556;DHT22;2290;48.674;9.018;2023-05-07T04:05:04;12.60;99.90
4556;DHT22;2290;48.674;9.018;2023-05-07T04:07:29;12.50;99.90
4556;DHT22;2290;48.674;9.018;2023-05-07T04:09:55;12.40;99.90
4556;DHT22;2290;48.674;9.018;2023-05-07T04:12:21;12.50;99.90
4556;DHT22;2290;48.674;9.018;2023-05-07T04:14:47;12.40;99.90
4556;DHT22;2290;48.674;9.018;2023-05-07T04:17:12;12.40;99.90
4556;DHT22;2290;48.674;9.018;2023-05-07T04:19:38;12.40;99.90
4556;DHT22;2290;48.674;9.018;2023-05-07T04:22:04;12.40;99.90
4556;DHT22;2290;48.674;9.018;2023-05-07T04:24:32;12.30;99.90
4556;DHT22;2290;48.674;9.018;2023-05-07T04:26:58;12.20;99.90
4556;DHT22;2290;48.674;9.018;2023-05-07T04:29:24;12.20;99.90
4556;DHT22;2290;48.674;9.018;2023-05-07T04:31:49;12.10;99.90
4556;DHT22;2290;48.674;9.018;2023-05-07T04:34:15;12.20;99.90
4556;DHT22;2290;48.674;9.018;2023-05-07T04:36:41;12.30;99.90
4556;DHT22;2290;48.674;9.018;2023-05-07T04:39:07;12.30;99.90
4556;DHT22;2290;48.674;9.018;2023-05-07T04:41:35;12.30;99.90
4556;DHT22;2290;48.674;9.018;2023-05-07T04:44:01;12.40;99.90
4556;DHT22;2290;48.674;9.018;2023-05-07T04:46:29;12.40;99.90
4556;DHT22;2290;48.674;9.018;2023-05-07T04:48:55;12.40;99.90
4556;DHT22;2290;48.674;9.018;2023-05-07T04:51:21;12.40;99.90
4556;DHT22;2290;48.674;9.018;2023-05-07T04:53:46;12.50;99.90
4556;DHT22;2290;48.674;9.018;2023-05-07T04:56:12;12.70;99.90
4556;DHT22;2290;48.674;9.018;2023-05-07T04:58:37;12.70;99.90
4556;DHT22;2290;48.674;9.018;2023-05-07T05:01:03;12.80;99.90
4556;DHT22;2290;48.674;9.018;2023-05-07T05:03:30;12.80;99.90
4556;DHT22;2290;48.674;9.018;2023-05-07T05:05:56;12.80;99.90
4556;DHT22;2290;48.674;9.018;2023-05-07T05:08:25;12.90;99.90
4556;DHT22;2290;48.674;9.018;2023-05-07T05:10:51;13.00;99.90
4556;DHT22;2290;48.674;9.018;2023-05-07T05:13:17;13.00;99.90
4556;DHT22;2290;48.674;9.018;2023-05-07T05:15:43;13.10;99.90
4556;DHT22;2290;48.674;9.018;2023-05-07T05:18:08;13.20;99.90
4556;DHT22;2290;48.674;9.018;2023-05-07T05:20:34;13.20;99.90
4556;DHT22;2290;48.674;9.018;2023-05-07T05:23:00;13.30;99.90
4556;DHT22;2290;48.674;9.018;2023-05-07T05:25:27;13.30;99.90
4556;DHT22;2290;48.674;9.018;2023-05-07T05:27:53;13.40;99.90
4556;DHT22;2290;48.674;9.018;2023-05-07T05:30:19;13.50;99.90
4556;DHT22;2290;48.674;9.018;2023-05-07T05:32:44;13.60;99.90
4556;DHT22;2290;48.674;9.018;2023-05-07T05:35:10;13.70;99.90
4556;DHT22;2290;48.674;9.018;2023-05-07T05:37:35;13.90;99.90
4556;DHT22;2290;48.674;9.018;2023-05-07T05:40:02;14.00;99.90
4556;DHT22;2290;48.674;9.018;2023-05-07T05:42:27;14.10;99.90
4556;DHT22;2290;48.674;9.018;2023-05-07T05:44:53;14.20;99.90
4556;DHT22;2290;48.674;9.018;2023-05-07T05:47:19;14.30;99.90
4556;DHT22;2290;48.674;9.018;2023-05-07T05:49:52;14.40;99.90
4556;DHT22;2290;48.674;9.018;2023-05-07T05:52:18;14.50;99.90
4556;DHT22;2290;48.674;9.018;2023-05-07T05:54:43;14.60;99.90
4556;DHT22;2290;48.674;9.018;2023-05-07T05:57:09;14.70;99.90
4556;DHT22;2290;48.674;9.018;2023-05-07T05:59:34;14.90;99.90
4556;DHT22;2290;48.674;9.018;2023-05-07T06:02:00;15.00;99.90
4556;DHT22;2290;48.674;9.018;2023-05-07T06:04:27;15.20;99.90
4556;DHT22;2290;48.674;9.018;2023-05-07T06:06:52;15.20;99.90
4556;DHT22;2290;48.674;9.018;2023-05-07T06:09:18;15.30;99.90
4556;DHT22;2290;48.674;9.018;2023-05-07T06:11:46;15.40;99.90
4556;DHT22;2290;48.674;9.018;2023-05-07T06:14:12;15.60;99.90
4556;DHT22;2290;48.674;9.018;2023-05-07T06:16:37;15.60;99.90
4556;DHT22;2290;48.674;9.018;2023-05-07T06:19:03;15.70;99.90
4556;DHT22;2290;48.674;9.018;2023-05-07T06:21:29;15.90;99.90
4556;DHT22;2290;48.674;9.018;2023-05-07T06:23:55;16.00;99.90
4556;DHT22;2290;48.674;9.018;2023-05-07T06:26:21;16.10;99.90
4556;DHT22;2290;48.674;9.018;2023-05-07T06:28:47;16.30;99.90
4556;DHT22;2290;48.674;9.018;2023-05-07T06:31:16;16.40;99.90
4556;DHT22;2290;48.674;9.018;2023-05-07T06:33:42;16.50;99.90
4556;DHT22;2290;48.674;9.018;2023-05-07T06:36:08;16.60;99.90
4556;DHT22;2290;48.674;9.018;2023-05-07T06:38:34;16.70;99.90
4556;DHT22;2290;48.674;9.018;2023-05-07T06:41:00;16.70;99.90
4556;DHT22;2290;48.674;9.018;2023-05-07T06:43:26;16.70;99.90
4556;DHT22;2290;48.674;9.018;2023-05-07T06:45:53;16.90;99.90
4556;DHT22;2290;48.674;9.018;2023-05-07T06:48:18;16.90;99.90
4556;DHT22;2290;48.674;9.018;2023-05-07T06:50:45;17.00;99.90
4556;DHT22;2290;48.674;9.018;2023-05-07T06:53:11;17.10;99.90
4556;DHT22;2290;48.674;9.018;2023-05-07T06:55:37;17.10;99.90
4556;DHT22;2290;48.674;9.018;2023-05-07T06:58:03;17.30;99.90
4556;DHT22;2290;48.674;9.018;2023-05-07T07:00:29;17.40;99.90
4556;DHT22;2290;48.674;9.018;2023-05-07T07:02:56;17.50;99.90
4556;DHT22;2290;48.674;9.018;2023-05-07T07:05:25;17.60;99.90
4556;DHT22;2290;48.674;9.018;2023-05-07T07:07:51;17.70;99.90
4556;DHT22;2290;48.674;9.018;2023-05-07T07:10:21;17.80;99.90
4556;DHT22;2290;48.674;9.018;2023-05-07T07:12:48;17.90;99.90
4556;DHT22;2290;48.674;9.018;2023-05-07T07:15:14;18.00;99.90
4556;DHT22;2290;48.674;9.018;2023-05-07T07:17:41;18.10;99.90
4556;DHT22;2290;48.674;9.018;2023-05-07T07:20:08;18.20;99.90
4556;DHT22;2290;48.674;9.018;2023-05-07T07:22:35;18.30;99.90
4556;DHT22;2290;48.674;9.018;2023-05-07T07:25:03;18.40;99.90
4556;DHT22;2290;48.674;9.018;2023-05-07T07:27:28;18.40;99.90
4556;DHT22;2290;48.674;9.018;2023-05-07T07:29:55;18.50;99.90
4556;DHT22;2290;48.674;9.018;2023-05-07T07:32:21;18.50;99.90
4556;DHT22;2290;48.674;9.018;2023-05-07T07:34:47;18.50;99.90
4556;DHT22;2290;48.674;9.018;2023-05-07T07:37:13;18.50;99.90
4556;DHT22;2290;48.674;9.018;2023-05-07T07:39:39;18.50;99.90
4556;DHT22;2290;48.674;9.018;2023-05-07T07:42:06;18.60;99.90
4556;DHT22;2290;48.674;9.018;2023-05-07T07:44:32;18.70;99.90
4556;DHT22;2290;48.674;9.018;2023-05-07T07:46:57;18.80;99.90
4556;DHT22;2290;48.674;9.018;2023-05-07T07:49:23;18.70;99.90
4556;DHT22;2290;48.674;9.018;2023-05-07T07:51:49;18.70;99.90
4556;DHT22;2290;48.674;9.018;2023-05-07T07:54:16;18.70;99.90
4556;DHT22;2290;48.674;9.018;2023-05-07T07:56:42;18.70;99.90
4556;DHT22;2290;48.674;9.018;2023-05-07T07:59:09;18.80;99.90
4556;DHT22;2290;48.674;9.018;2023-05-07T08:01:34;19.00;99.90
4556;DHT22;2290;48.674;9.018;2023-05-07T08:04:00;19.10;99.90
4556;DHT22;2290;48.674;9.018;2023-05-07T08:06:29;19.20;99.90
4556;DHT22;2290;48.674;9.018;2023-05-07T08:08:55;19.40;99.90
4556;DHT22;2290;48.674;9.018;2023-05-07T08:11:22;19.50;99.90
4556;DHT22;2290;48.674;9.018;2023-05-07T08:13:47;19.60;99.90
4556;DHT22;2290;48.674;9.018;2023-05-07T08:16:13;19.70;99.90
4556;DHT22;2290;48.674;9.018;2023-05-07T08:18:39;19.90;99.90
4556;DHT22;2290;48.674;9.018;2023-05-07T08:21:05;19.90;99.90
4556;DHT22;2290;48.674;9.018;2023-05-07T08:23:30;20.10;99.90
4556;DHT22;2290;48.674;9.018;2023-05-07T08:25:56;20.20;99.90
4556;DHT22;2290;48.674;9.018;2023-05-07T08:28:23;20.20;99.90
4556;DHT22;2290;48.674;9.018;2023-05-07T08:30:50;20.20;99.90
4556;DHT22;2290;48.674;9.018;2023-05-07T08:33:16;20.30;99.90
4556;DHT22;2290;48.674;9.018;2023-05-07T08:35:43;20.40;99.90
4556;DHT22;2290;48.674;9.018;2023-05-07T08:38:09;20.50;99.90
4556;DHT22;2290;48.674;9.018;2023-05-07T08:40:38;20.60;99.90
4556;DHT22;2290;48.674;9.018;2023-05-07T08:43:08;20.70;99.90
4556;DHT22;2290;48.674;9.018;2023-05-07T08:45:34;20.80;99.90
4556;DHT22;2290;48.674;9.018;2023-05-07T08:48:03;20.80;99.90
4556;DHT22;2290;48.674;9.018;2023-05-07T08:50:30;20.80;99.90
4556;DHT22;2290;48.674;9.018;2023-05-07T08:52:58;20.90;99.90
4556;DHT22;2290;48.674;9.018;2023-05-07T08:55:28;20.90;99.90
4556;DHT22;2290;48.674;9.018;2023-05-07T08:57:54;20.90;99.90
4556;DHT22;2290;48.674;9.018;2023-05-07T09:00:19;20.90;99.90
4556;DHT22;2290;48.674;9.018;2023-05-07T09:02:45;20.90;99.90
4556;DHT22;2290;48.674;9.018;2023-05-07T09:05:12;21.00;99.90
4556;DHT22;2290;48.674;9.018;2023-05-07T09:07:38;21.00;99.90
4556;DHT22;2290;48.674;9.018;2023-05-07T09:10:04;21.00;99.90
4556;DHT22;2290;48.674;9.018;2023-05-07T09:12:31;21.00;99.90
4556;DHT22;2290;48.674;9.018;2023-05-07T09:14:58;21.00;99.90
4556;DHT22;2290;48.674;9.018;2023-05-07T09:17:24;21.10;99.90
4556;DHT22;2290;48.674;9.018;2023-05-07T09:19:49;21.20;99.90
4556;DHT22;2290;48.674;9.018;2023-05-07T09:22:16;21.40;99.90
4556;DHT22;2290;48.674;9.018;2023-05-07T09:24:57;21.60;99.90
4556;DHT22;2290;48.674;9.018;2023-05-07T09:27:23;21.60;99.90
4556;DHT22;2290;48.674;9.018;2023-05-07T09:29:48;21.70;99.90
4556;DHT22;2290;48.674;9.018;2023-05-07T09:32:14;21.90;99.90
4556;DHT22;2290;48.674;9.018;2023-05-07T09:34:43;22.00;99.90
4556;DHT22;2290;48.674;9.018;2023-05-07T09:37:08;21.90;99.90
4556;DHT22;2290;48.674;9.018;2023-05-07T09:39:49;22.10;99.90
4556;DHT22;2290;48.674;9.018;2023-05-07T09:42:15;22.20;99.90
4556;DHT22;2290;48.674;9.018;2023-05-07T09:44:41;22.40;99.90
4556;DHT22;2290;48.674;9.018;2023-05-07T09:47:08;22.50;99.90
4556;DHT22;2290;48.674;9.018;2023-05-07T09:49:36;22.60;99.90
4556;DHT22;2290;48.674;9.018;2023-05-07T09:52:04;22.70;99.90
4556;DHT22;2290;48.674;9.018;2023-05-07T09:54:32;22.80;99.90
4556;DHT22;2290;48.674;9.018;2023-05-07T09:57:00;22.90;99.90
4556;DHT22;2290;48.674;9.018;2023-05-07T09:59:27;22.90;99.90
4556;DHT22;2290;48.674;9.018;2023-05-07T10:01:59;23.00;99.90
4556;DHT22;2290;48.674;9.018;2023-05-07T10:04:28;23.20;99.90
4556;DHT22;2290;48.674;9.018;2023-05-07T10:06:55;23.40;99.90
4556;DHT22;2290;48.674;9.018;2023-05-07T10:09:22;23.50;99.90
4556;DHT22;2290;48.674;9.018;2023-05-07T10:11:50;23.60;99.90
4556;DHT22;2290;48.674;9.018;2023-05-07T10:14:17;23.60;99.90
4556;DHT22;2290;48.674;9.018;2023-05-07T10:16:43;23.70;99.90
4556;DHT22;2290;48.674;9.018;2023-05-07T10:19:09;23.80;99.90
4556;DHT22;2290;48.674;9.018;2023-05-07T10:21:42;23.80;99.90
4556;DHT22;2290;48.674;9.018;2023-05-07T10:24:20;23.90;99.90
4556;DHT22;2290;48.674;9.018;2023-05-07T10:26:49;24.10;99.90
4556;DHT22;2290;48.674;9.018;2023-05-07T10:32:29;24.20;99.90
4556;DHT22;2290;48.674;9.018;2023-05-07T10:35:02;24.30;99.90
4556;DHT22;2290;48.674;9.018;2023-05-07T10:37:30;24.50;99.90
4556;DHT22;2290;48.674;9.018;2023-05-07T10:39:57;24.70;99.90
4556;DHT22;2290;48.674;9.018;2023-05-07T10:42:24;24.80;99.90
4556;DHT22;2290;48.674;9.018;2023-05-07T10:44:50;24.90;99.90
4556;DHT22;2290;48.674;9.018;2023-05-07T10:47:16;25.00;99.90
4556;DHT22;2290;48.674;9.018;2023-05-07T10:52:21;25.30;99.90
4556;DHT22;2290;48.674;9.018;2023-05-07T10:54:47;25.30;99.90
4556;DHT22;2290;48.674;9.018;2023-05-07T10:57:34;25.40;99.90
4556;DHT22;2290;48.674;9.018;2023-05-07T11:00:03;25.20;99.90
4556;DHT22;2290;48.674;9.018;2023-05-07T11:05:30;25.10;99.90
4556;DHT22;2290;48.674;9.018;2023-05-07T11:08:00;25.10;99.90
4556;DHT22;2290;48.674;9.018;2023-05-07T11:11:02;25.10;99.90
4556;DHT22;2290;48.674;9.018;2023-05-07T11:16:20;25.00;99.90
4556;DHT22;2290;48.674;9.018;2023-05-07T11:18:55;25.00;99.90
4556;DHT22;2290;48.674;9.018;2023-05-07T11:21:40;25.00;99.90
4556;DHT22;2290;48.674;9.018;2023-05-07T11:24:08;24.90;99.90
4556;DHT22;2290;48.674;9.018;2023-05-07T11:26:50;24.50;99.90
4556;DHT22;2290;48.674;9.018;2023-05-07T11:29:19;24.20;99.90
4556;DHT22;2290;48.674;9.018;2023-05-07T11:31:51;23.90;99.90
4556;DHT22;2290;48.674;9.018;2023-05-07T11:34:24;23.60;99.90
4556;DHT22;2290;48.674;9.018;2023-05-07T11:36:54;23.40;99.90
4556;DHT22;2290;48.674;9.018;2023-05-07T11:39:28;23.30;99.90
4556;DHT22;2290;48.674;9.018;2023-05-07T11:41:55;23.10;99.90
4556;DHT22;2290;48.674;9.018;2023-05-07T11:44:21;23.00;99.90
4556;DHT22;2290;48.674;9.018;2023-05-07T11:46:51;22.80;99.90
4556;DHT22;2290;48.674;9.018;2023-05-07T11:49:17;22.60;99.90
4556;DHT22;2290;48.674;9.018;2023-05-07T11:51:43;22.60;99.90
4556;DHT22;2290;48.674;9.018;2023-05-07T11:54:10;22.40;99.90
4556;DHT22;2290;48.674;9.018;2023-05-07T11:56:37;22.30;99.90
4556;DHT22;2290;48.674;9.018;2023-05-07T11:59:05;22.20;99.90
4556;DHT22;2290;48.674;9.018;2023-05-07T12:02:00;22.00;99.90
4556;DHT22;2290;48.674;9.018;2023-05-07T12:04:30;21.90;99.90
4556;DHT22;2290;48.674;9.018;2023-05-07T12:06:56;21.80;99.90
4556;DHT22;2290;48.674;9.018;2023-05-07T12:09:22;21.50;99.90
4556;DHT22;2290;48.674;9.018;2023-05-07T12:11:48;21.10;99.90
4556;DHT22;2290;48.674;9.018;2023-05-07T12:14:13;20.90;99.90
4556;DHT22;2290;48.674;9.018;2023-05-07T12:16:41;20.70;99.90
4556;DHT22;2290;48.674;9.018;2023-05-07T12:19:08;20.60;99.90
4556;DHT22;2290;48.674;9.018;2023-05-07T12:21:38;20.40;99.90
4556;DHT22;2290;48.674;9.018;2023-05-07T12:24:05;20.20;99.90
4556;DHT22;2290;48.674;9.018;2023-05-07T12:26:32;20.10;99.90
4556;DHT22;2290;48.674;9.018;2023-05-07T12:28:58;20.00;99.90
4556;DHT22;2290;48.674;9.018;2023-05-07T12:31:27;19.80;99.90
4556;DHT22;2290;48.674;9.018;2023-05-07T12:33:57;19.80;99.90
4556;DHT22;2290;48.674;9.018;2023-05-07T12:36:26;19.70;99.90
4556;DHT22;2290;48.674;9.018;2023-05-07T12:38:51;19.70;99.90
4556;DHT22;2290;48.674;9.018;2023-05-07T12:41:20;19.50;99.90
4556;DHT22;2290;48.674;9.018;2023-05-07T12:43:56;19.40;99.90
4556;DHT22;2290;48.674;9.018;2023-05-07T12:46:24;19.10;99.90
4556;DHT22;2290;48.674;9.018;2023-05-07T12:48:52;18.80;99.90
4556;DHT22;2290;48.674;9.018;2023-05-07T12:51:19;18.60;99.90
4556;DHT22;2290;48.674;9.018;2023-05-07T12:53:45;18.20;99.90
4556;DHT22;2290;48.674;9.018;2023-05-07T12:56:11;17.90;99.90
4556;DHT22;2290;48.674;9.018;2023-05-07T12:58:37;17.70;99.90
4556;DHT22;2290;48.674;9.018;2023-05-07T13:01:08;17.50;99.90
4556;DHT22;2290;48.674;9.018;2023-05-07T13:03:38;17.50;99.90
4556;DHT22;2290;48.674;9.018;2023-05-07T13:06:05;17.50;99.90
4556;DHT22;2290;48.674;9.018;2023-05-07T13:08:36;17.40;99.90
4556;DHT22;2290;48.674;9.018;2023-05-07T13:11:03;17.30;99.90
4556;DHT22;2290;48.674;9.018;2023-05-07T13:13:33;17.30;99.90
4556;DHT22;2290;48.674;9.018;2023-05-07T13:16:03;17.30;99.90
4556;DHT22;2290;48.674;9.018;2023-05-07T13:18:33;17.30;99.90
4556;DHT22;2290;48.674;9.018;2023-05-07T13:21:00;17.20;99.90
4556;DHT22;2290;48.674;9.018;2023-05-07T13:23:26;17.10;99.90
4556;DHT22;2290;48.674;9.018;2023-05-07T13:25:52;17.10;99.90
4556;DHT22;2290;48.674;9.018;2023-05-07T13:28:20;16.90;99.90
4556;DHT22;2290;48.674;9.018;2023-05-07T13:30:46;16.90;99.90
4556;DHT22;2290;48.674;9.018;2023-05-07T13:33:12;16.80;99.90
4556;DHT22;2290;48.674;9.018;2023-05-07T13:35:39;16.80;99.90
4556;DHT22;2290;48.674;9.018;2023-05-07T13:38:05;16.80;99.90
4556;DHT22;2290;48.674;9.018;2023-05-07T13:40:30;16.80;99.90
4556;DHT22;2290;48.674;9.018;2023-05-07T13:43:02;16.90;99.90
4556;DHT22;2290;48.674;9.018;2023-05-07T13:45:29;16.90;99.90
4556;DHT22;2290;48.674;9.018;2023-05-07T13:47:58;16.80;99.90
4556;DHT22;2290;48.674;9.018;2023-05-07T13:50:24;16.80;99.90
4556;DHT22;2290;48.674;9.018;2023-05-07T13:52:52;16.80;99.90
4556;DHT22;2290;48.674;9.018;2023-05-07T13:55:21;16.70;99.90
4556;DHT22;2290;48.674;9.018;2023-05-07T13:57:57;16.70;99.90
4556;DHT22;2290;48.674;9.018;2023-05-07T14:00:24;16.70;99.90
4556;DHT22;2290;48.674;9.018;2023-05-07T14:02:50;16.60;99.90
4556;DHT22;2290;48.674;9.018;2023-05-07T14:05:16;16.60;99.90
4556;DHT22;2290;48.674;9.018;2023-05-07T14:07:42;16.70;99.90
4556;DHT22;2290;48.674;9.018;2023-05-07T14:10:09;16.60;99.90
4556;DHT22;2290;48.674;9.018;2023-05-07T14:12:36;16.60;99.90
4556;DHT22;2290;48.674;9.018;2023-05-07T14:15:02;16.60;99.90
4556;DHT22;2290;48.674;9.018;2023-05-07T14:17:29;16.60;99.90
4556;DHT22;2290;48.674;9.018;2023-05-07T14:19:55;16.60;99.90
4556;DHT22;2290;48.674;9.018;2023-05-07T14:22:24;16.60;99.90
4556;DHT22;2290;48.674;9.018;2023-05-07T14:24:50;16.60;99.90
4556;DHT22;2290;48.674;9.018;2023-05-07T14:27:15;16.60;99.90
4556;DHT22;2290;48.674;9.018;2023-05-07T14:29:41;16.50;99.90
4556;DHT22;2290;48.674;9.018;2023-05-07T14:32:11;16.50;99.90
4556;DHT22;2290;48.674;9.018;2023-05-07T14:34:38;16.50;99.90
4556;DHT22;2290;48.674;9.018;2023-05-07T14:37:03;16.50;99.90
4556;DHT22;2290;48.674;9.018;2023-05-07T14:39:29;16.40;99.90
4556;DHT22;2290;48.674;9.018;2023-05-07T14:41:57;16.30;99.90
4556;DHT22;2290;48.674;9.018;2023-05-07T14:44:22;16.50;99.90
4556;DHT22;2290;48.674;9.018;2023-05-07T14:46:48;16.50;99.90
4556;DHT22;2290;48.674;9.018;2023-05-07T14:49:14;16.60;99.90
4556;DHT22;2290;48.674;9.018;2023-05-07T14:51:46;16.60;99.90
4556;DHT22;2290;48.674;9.018;2023-05-07T14:54:15;16.70;99.90
4556;DHT22;2290;48.674;9.018;2023-05-07T14:56:42;16.70;99.90
4556;DHT22;2290;48.674;9.018;2023-05-07T14:59:08;16.70;99.90
4556;DHT22;2290;48.674;9.018;2023-05-07T15:01:35;16.80;99.90
4556;DHT22;2290;48.674;9.018;2023-05-07T15:04:03;16.80;99.90
4556;DHT22;2290;48.674;9.018;2023-05-07T15:06:29;16.90;99.90
4556;DHT22;2290;48.674;9.018;2023-05-07T15:08:59;16.90;99.90
4556;DHT22;2290;48.674;9.018;2023-05-07T15:11:25;17.00;99.90
4556;DHT22;2290;48.674;9.018;2023-05-07T15:13:51;17.00;99.90
4556;DHT22;2290;48.674;9.018;2023-05-07T15:16:17;17.10;99.90
4556;DHT22;2290;48.674;9.018;2023-05-07T15:18:43;17.10;99.90
4556;DHT22;2290;48.674;9.018;2023-05-07T15:21:09;17.20;99.90
4556;DHT22;2290;48.674;9.018;2023-05-07T15:23:35;17.20;99.90
4556;DHT22;2290;48.674;9.018;2023-05-07T15:26:00;17.10;99.90
4556;DHT22;2290;48.674;9.018;2023-05-07T15:28:29;17.10;99.90
4556;DHT22;2290;48.674;9.018;2023-05-07T15:30:55;17.20;99.90
4556;DHT22;2290;48.674;9.018;2023-05-07T15:33:20;17.30;99.90
4556;DHT22;2290;48.674;9.018;2023-05-07T15:35:46;17.40;99.90
4556;DHT22;2290;48.674;9.018;2023-05-07T15:38:11;17.50;99.90
4556;DHT22;2290;48.674;9.018;2023-05-07T15:40:38;17.60;99.90
4556;DHT22;2290;48.674;9.018;2023-05-07T15:43:08;17.70;99.90
4556;DHT22;2290;48.674;9.018;2023-05-07T15:45:41;17.80;99.90
4556;DHT22;2290;48.674;9.018;2023-05-07T15:48:08;17.80;99.90
4556;DHT22;2290;48.674;9.018;2023-05-07T15:50:33;17.90;99.90
4556;DHT22;2290;48.674;9.018;2023-05-07T15:52:59;18.00;99.90
4556;DHT22;2290;48.674;9.018;2023-05-07T15:55:24;18.10;99.90
4556;DHT22;2290;48.674;9.018;2023-05-07T15:57:51;18.10;99.90
4556;DHT22;2290;48.674;9.018;2023-05-07T16:00:16;18.10;99.90
4556;DHT22;2290;48.674;9.018;2023-05-07T16:02:46;18.20;99.90
4556;DHT22;2290;48.674;9.018;2023-05-07T16:05:12;18.20;99.90
4556;DHT22;2290;48.674;9.018;2023-05-07T16:07:38;18.30;99.90
4556;DHT22;2290;48.674;9.018;2023-05-07T16:10:04;18.20;99.90
4556;DHT22;2290;48.674;9.018;2023-05-07T16:12:30;18.20;99.90